Time;durP1;ratioP1;P1;durP2;ratioP2;P2;SDS_P1;SDS_P2;PMS_P1;PMS_P2;Temp;Humidity;BMP_temperature;BMP_pressure;BME280_temperature;BME280_humidity;BME280_pressure;Samples;Min_cycle;Max_cycle;Signal;HPM_P1;HPM_P2
2023/02/09 00:01:06;;;;;;;;;;;;;;;-6.59;100.00;98072.19;5038940;28;19921;-71
2023/02/09 00:03:32;;;;;;;;;;;;;;;-6.46;100.00;98068.53;5042822;28;20341;-71
2023/02/09 00:06:01;;;;;;;;;;;;;;;-6.42;100.00;98069.75;5042404;28;19917;-72
2023/02/09 00:08:26;;;;;;;;;;;;;;;-6.46;100.00;98064.06;5038216;28;19917;-72
2023/02/09 00:10:51;;;;;;;;;;;;;;;-6.54;100.00;98069.66;5042988;28;19924;-72
2023/02/09 00:13:23;;;;;;;;;;;;;;;-6.59;100.00;98064.19;5038562;28;20366;-72
2023/02/09 00:15:49;;;;;;;;;;;;;;;-6.64;100.00;98074.72;5043861;28;19920;-71
2023/02/09 00:18:14;;;;;;;;;;;;;;;-6.78;100.00;98071.38;5037804;28;20016;-71
2023/02/09 00:20:39;;;;;;;;;;;;;;;-6.89;100.00;98075.59;5041947;28;19917;-70
2023/02/09 00:23:05;;;;;;;;;;;;;;;-6.96;100.00;98080.16;5037553;28;20431;-71
2023/02/09 00:25:30;;;;;;;;;;;;;;;-6.92;100.00;98082.16;5038732;28;19967;-71
2023/02/09 00:27:55;;;;;;;;;;;;;;;-6.86;100.00;98080.47;5042211;28;20246;-71
2023/02/09 00:30:20;;;;;;;;;;;;;;;-6.69;100.00;98072.72;5037757;28;21276;-71
2023/02/09 00:32:46;;;;;;;;;;;;;;;-6.65;100.00;98083.75;5041896;28;20389;-72
2023/02/09 00:35:11;;;;;;;;;;;;;;;-6.82;100.00;98075.53;5036481;28;19921;-70
2023/02/09 00:37:36;;;;;;;;;;;;;;;-6.92;100.00;98076.03;5040260;28;19964;-71
2023/02/09 00:40:03;;;;;;;;;;;;;;;-6.98;100.00;98072.38;5039702;28;20005;-70
2023/02/09 00:42:28;;;;;;;;;;;;;;;-7.08;100.00;98074.72;5039996;28;20294;-70
2023/02/09 00:44:53;;;;;;;;;;;;;;;-7.17;100.00;98070.72;5041033;28;19962;-70
2023/02/09 00:47:19;;;;;;;;;;;;;;;-7.20;100.00;98074.66;5036127;28;19917;-70
2023/02/09 00:49:44;;;;;;;;;;;;;;;-7.19;100.00;98068.28;5042346;28;19916;-70
2023/02/09 00:52:10;;;;;;;;;;;;;;;-6.99;100.00;98072.59;5036910;28;20358;-70
2023/02/09 00:54:35;;;;;;;;;;;;;;;-7.19;100.00;98057.63;5043807;28;19921;-71
2023/02/09 00:57:04;;;;;;;;;;;;;;;-7.25;100.00;98060.38;5039221;28;19994;-73
2023/02/09 00:59:29;;;;;;;;;;;;;;;-7.28;100.00;98058.94;5023966;28;20444;-70
2023/02/09 01:01:55;;;;;;;;;;;;;;;-7.27;100.00;98055.25;5042448;28;19917;-71
2023/02/09 01:04:20;;;;;;;;;;;;;;;-7.22;100.00;98054.59;5037645;28;19917;-70
2023/02/09 01:06:45;;;;;;;;;;;;;;;-6.96;100.00;98062.31;5041013;28;19959;-71
2023/02/09 01:09:11;;;;;;;;;;;;;;;-6.81;100.00;98067.28;5046861;28;20324;-71
2023/02/09 01:11:36;;;;;;;;;;;;;;;-6.66;100.00;98061.63;5058365;28;20362;-71
2023/02/09 01:14:03;;;;;;;;;;;;;;;-6.70;100.00;98059.59;5062184;28;19920;-72
2023/02/09 01:16:30;;;;;;;;;;;;;;;-6.74;100.00;98056.56;5055963;28;19917;-73
2023/02/09 01:18:57;;;;;;;;;;;;;;;-6.73;100.00;98060.88;5039834;28;19928;-70
2023/02/09 01:21:23;;;;;;;;;;;;;;;-6.87;100.00;98068.19;5018773;28;20247;-71
2023/02/09 01:23:49;;;;;;;;;;;;;;;-6.81;100.00;98064.63;5042269;28;20693;-70
2023/02/09 01:26:15;;;;;;;;;;;;;;;-6.85;100.00;98055.47;5018120;28;19921;-70
2023/02/09 01:28:40;;;;;;;;;;;;;;;-6.92;100.00;98047.53;5042377;28;19972;-70
2023/02/09 01:31:16;;;;;;;;;;;;;;;-6.99;100.00;98048.63;5026679;28;20400;-70
2023/02/09 01:33:41;;;;;;;;;;;;;;;-7.00;100.00;98050.50;5044387;28;20370;-71
2023/02/09 01:36:07;;;;;;;;;;;;;;;-7.04;100.00;98051.13;5036726;28;19917;-70
2023/02/09 01:38:32;;;;;;;;;;;;;;;-7.10;100.00;98044.84;5041732;28;19925;-70
2023/02/09 01:40:57;;;;;;;;;;;;;;;-6.95;100.00;98052.47;5046074;28;20393;-70
2023/02/09 01:43:23;;;;;;;;;;;;;;;-6.92;100.00;98044.88;5057181;28;20250;-72
2023/02/09 01:45:49;;;;;;;;;;;;;;;-6.71;100.00;98042.00;5058336;28;19927;-71
2023/02/09 01:48:18;;;;;;;;;;;;;;;-6.73;100.00;98040.38;5051713;28;20007;-70
2023/02/09 01:50:44;;;;;;;;;;;;;;;-6.82;100.00;98040.91;5057153;28;20011;-70
2023/02/09 01:53:10;;;;;;;;;;;;;;;-6.87;100.00;98036.22;5034312;28;19916;-68
2023/02/09 01:55:39;;;;;;;;;;;;;;;-6.98;100.00;98048.41;5054274;28;19926;-71
2023/02/09 01:58:07;;;;;;;;;;;;;;;-7.17;100.00;98041.44;5054605;28;19920;-70
2023/02/09 02:00:32;;;;;;;;;;;;;;;-7.32;100.00;98042.59;5043379;28;20382;-70
2023/02/09 02:03:00;;;;;;;;;;;;;;;-7.43;100.00;98035.31;5044793;28;19966;-70
2023/02/09 02:05:26;;;;;;;;;;;;;;;-7.56;100.00;98038.06;5040497;28;20366;-70
2023/02/09 02:08:12;;;;;;;;;;;;;;;-7.48;100.00;98039.69;5045886;28;20385;-71
2023/02/09 02:10:37;;;;;;;;;;;;;;;-7.41;100.00;98048.41;5024780;28;20008;-71
2023/02/09 02:13:03;;;;;;;;;;;;;;;-7.33;100.00;98037.47;5021012;28;20011;-72
2023/02/09 02:15:57;;;;;;;;;;;;;;;-7.25;100.00;98037.22;5021473;28;19921;-70
2023/02/09 02:18:28;;;;;;;;;;;;;;;-7.13;100.00;98037.28;4981459;28;19952;-71
2023/02/09 02:21:13;;;;;;;;;;;;;;;-7.00;100.00;98034.50;5045001;28;19970;-72
2023/02/09 02:23:38;;;;;;;;;;;;;;;-6.94;100.00;98032.81;5044644;28;20003;-72
2023/02/09 02:26:12;;;;;;;;;;;;;;;-7.02;100.00;98028.59;5040959;28;20019;-71
2023/02/09 02:28:41;;;;;;;;;;;;;;;-6.97;100.00;98027.91;5044280;28;19921;-71
2023/02/09 02:31:06;;;;;;;;;;;;;;;-7.07;100.00;98036.44;5040583;28;19917;-69
2023/02/09 02:33:41;;;;;;;;;;;;;;;-7.17;100.00;98023.59;5044689;28;19921;-72
2023/02/09 02:36:32;;;;;;;;;;;;;;;-7.15;100.00;98023.38;5039144;28;20455;-71
2023/02/09 02:39:13;;;;;;;;;;;;;;;-7.16;100.00;98025.25;5041891;28;20310;-72
2023/02/09 02:44:27;;;;;;;;;;;;;;;-7.60;100.00;98027.06;5059425;28;20423;-72
2023/02/09 02:46:55;;;;;;;;;;;;;;;-7.79;100.00;98018.22;5064431;28;20357;-72
2023/02/09 02:49:38;;;;;;;;;;;;;;;-7.92;100.00;98023.63;5058997;28;19948;-72
2023/02/09 02:52:06;;;;;;;;;;;;;;;-8.00;100.00;98021.22;5041370;28;19920;-71
2023/02/09 02:54:33;;;;;;;;;;;;;;;-8.02;100.00;98018.78;5062947;28;19963;-72
2023/02/09 02:57:04;;;;;;;;;;;;;;;-7.93;100.00;98012.16;5064452;28;20022;-71
2023/02/09 02:59:31;;;;;;;;;;;;;;;-7.62;100.00;98012.34;5050695;28;19921;-69
2023/02/09 03:02:03;;;;;;;;;;;;;;;-7.43;100.00;97997.25;5044391;28;19971;-70
2023/02/09 03:04:29;;;;;;;;;;;;;;;-7.39;100.00;98004.56;5044545;28;20463;-71
2023/02/09 03:06:54;;;;;;;;;;;;;;;-7.32;100.00;98013.31;5037691;28;19921;-70
2023/02/09 03:09:20;;;;;;;;;;;;;;;-7.05;100.00;98013.06;5019818;28;20363;-70
2023/02/09 03:11:47;;;;;;;;;;;;;;;-6.87;100.00;98014.91;5043672;28;19917;-70
2023/02/09 03:14:24;;;;;;;;;;;;;;;-6.97;100.00;98026.09;5038901;28;20376;-70
2023/02/09 03:16:55;;;;;;;;;;;;;;;-7.15;100.00;98026.06;5045051;28;19959;-71
2023/02/09 03:19:29;;;;;;;;;;;;;;;-7.01;100.00;98027.53;5039119;28;19925;-70
2023/02/09 03:21:57;;;;;;;;;;;;;;;-7.01;100.00;98027.53;5043992;28;19955;-70
2023/02/09 03:24:28;;;;;;;;;;;;;;;-6.97;100.00;98025.25;5038609;28;20019;-70
2023/02/09 03:26:56;;;;;;;;;;;;;;;-6.93;100.00;98035.25;5043799;28;20410;-71
2023/02/09 03:29:24;;;;;;;;;;;;;;;-7.07;100.00;98028.44;5037526;28;20651;-72
2023/02/09 03:31:49;;;;;;;;;;;;;;;-7.28;100.00;98032.31;5044375;28;19927;-71
2023/02/09 03:34:15;;;;;;;;;;;;;;;-7.56;100.00;98035.41;5039723;28;20015;-71
2023/02/09 03:36:41;;;;;;;;;;;;;;;-7.75;100.00;98039.88;5025880;28;19986;-71
2023/02/09 03:39:07;;;;;;;;;;;;;;;-7.73;100.00;98041.28;5037616;28;19925;-70
2023/02/09 03:41:32;;;;;;;;;;;;;;;-7.44;100.00;98048.84;5043325;28;19924;-69
2023/02/09 03:46:42;;;;;;;;;;;;;;;-7.05;100.00;98044.19;5042878;28;19927;-69
2023/02/09 03:49:08;;;;;;;;;;;;;;;-7.07;100.00;98048.94;5038063;28;19916;-70
2023/02/09 03:51:33;;;;;;;;;;;;;;;-6.99;100.00;98049.44;5042491;28;20088;-70
2023/02/09 03:53:58;;;;;;;;;;;;;;;-6.88;100.00;98053.22;5043529;28;19917;-71
2023/02/09 03:56:28;;;;;;;;;;;;;;;-6.89;100.00;98046.28;5035705;28;20760;-71
2023/02/09 03:58:53;;;;;;;;;;;;;;;-6.99;100.00;98048.63;5043108;28;19921;-70
2023/02/09 04:01:18;;;;;;;;;;;;;;;-6.96;100.00;98048.19;5038740;28;19928;-69
2023/02/09 04:03:43;;;;;;;;;;;;;;;-6.85;100.00;98049.31;5042143;28;20450;-69
2023/02/09 04:06:09;;;;;;;;;;;;;;;-6.91;100.00;98048.38;5036634;28;19920;-69
2023/02/09 04:08:34;;;;;;;;;;;;;;;-6.92;100.00;98047.53;5046656;28;19916;-71
2023/02/09 04:11:00;;;;;;;;;;;;;;;-6.99;100.00;98059.28;5062396;28;19926;-71
2023/02/09 04:13:26;;;;;;;;;;;;;;;-7.03;100.00;98058.91;5059401;28;19916;-71
2023/02/09 04:15:51;;;;;;;;;;;;;;;-7.02;100.00;98051.72;5070651;28;20350;-71
2023/02/09 04:18:16;;;;;;;;;;;;;;;-7.21;100.00;98053.56;5057745;28;19921;-72
2023/02/09 04:20:42;;;;;;;;;;;;;;;-7.33;100.00;98056.94;5045449;28;19916;-71
2023/02/09 04:23:07;;;;;;;;;;;;;;;-7.35;100.00;98058.19;5037979;28;19920;-72
2023/02/09 04:25:32;;;;;;;;;;;;;;;-7.49;100.00;98057.47;5041640;28;20015;-72
2023/02/09 04:27:57;;;;;;;;;;;;;;;-7.74;100.00;98068.09;5043255;28;20397;-71
2023/02/09 04:30:23;;;;;;;;;;;;;;;-8.01;100.00;98068.28;5036419;28;20277;-72
2023/02/09 04:32:48;;;;;;;;;;;;;;;-8.00;100.00;98072.56;5041931;28;19924;-71
2023/02/09 04:35:13;;;;;;;;;;;;;;;-8.00;100.00;98064.59;5038488;28;19928;-72
2023/02/09 04:37:39;;;;;;;;;;;;;;;-8.12;100.00;98066.28;5041874;28;19956;-72
2023/02/09 04:40:04;;;;;;;;;;;;;;;-8.26;100.00;98074.34;5037505;28;19960;-72
2023/02/09 04:42:31;;;;;;;;;;;;;;;-8.39;100.00;98073.56;5021517;28;19925;-71
2023/02/09 04:44:56;;;;;;;;;;;;;;;-8.50;100.00;98072.41;5021182;28;19924;-70
2023/02/09 04:47:21;;;;;;;;;;;;;;;-8.60;100.00;98070.22;5016772;28;20247;-70
2023/02/09 04:49:47;;;;;;;;;;;;;;;-8.70;100.00;98073.28;5035901;28;19948;-71
2023/02/09 04:52:12;;;;;;;;;;;;;;;-8.63;100.00;98069.81;5031902;28;20321;-71
2023/02/09 04:54:37;;;;;;;;;;;;;;;-8.67;100.00;98072.06;5042751;28;19917;-71
2023/02/09 04:59:46;;;;;;;;;;;;;;;-8.67;100.00;98075.53;5041166;28;19920;-70
2023/02/09 05:02:11;;;;;;;;;;;;;;;-8.38;100.00;98076.03;5036991;28;20354;-72
2023/02/09 05:04:36;;;;;;;;;;;;;;;-8.24;100.00;98083.94;5041844;28;19924;-70
2023/02/09 05:07:02;;;;;;;;;;;;;;;-8.34;100.00;98076.41;5038851;28;19952;-70
2023/02/09 05:09:27;;;;;;;;;;;;;;;-8.28;100.00;98078.25;5049538;28;19920;-70
2023/02/09 05:11:52;;;;;;;;;;;;;;;-8.01;100.00;98080.75;5061695;28;19943;-69
2023/02/09 05:14:18;;;;;;;;;;;;;;;-8.01;100.00;98076.25;5055507;28;20011;-69
2023/02/09 05:16:43;;;;;;;;;;;;;;;-7.93;100.00;98083.16;5061392;28;19962;-69
2023/02/09 05:19:08;;;;;;;;;;;;;;;-7.83;100.00;98083.53;5050731;28;19946;-70
2023/02/09 05:21:33;;;;;;;;;;;;;;;-7.71;100.00;98079.13;5040457;28;19917;-72
2023/02/09 05:23:59;;;;;;;;;;;;;;;-7.50;100.00;98085.94;5040885;28;20416;-73
2023/02/09 05:26:24;;;;;;;;;;;;;;;-7.48;100.00;98083.06;5035972;28;19917;-74
2023/02/09 05:28:49;;;;;;;;;;;;;;;-7.73;100.00;98091.00;5040785;28;19921;-73
2023/02/09 05:31:15;;;;;;;;;;;;;;;-7.61;100.00;98083.97;5036974;28;20376;-74
2023/02/09 05:33:40;;;;;;;;;;;;;;;-7.38;100.00;98083.41;5043416;28;19917;-74
2023/02/09 05:36:08;;;;;;;;;;;;;;;-7.39;100.00;98086.28;5040723;28;19992;-73
2023/02/09 05:38:33;;;;;;;;;;;;;;;-7.74;100.00;98087.56;5027878;28;19924;-74
2023/02/09 05:41:02;;;;;;;;;;;;;;;-7.81;100.00;98080.63;5045112;28;20270;-75
2023/02/09 05:43:28;;;;;;;;;;;;;;;-7.64;100.00;98091.56;5043604;28;19931;-65
2023/02/09 05:45:53;;;;;;;;;;;;;;;-7.18;100.00;98091.22;5060342;28;19916;-66
2023/02/09 05:48:18;;;;;;;;;;;;;;;-6.82;100.00;98094.19;5059903;28;19916;-66
2023/02/09 05:50:44;;;;;;;;;;;;;;;-6.86;100.00;98092.97;5065125;28;20381;-65
2023/02/09 05:53:09;;;;;;;;;;;;;;;-6.97;100.00;98097.16;5059258;28;20383;-65
2023/02/09 05:55:34;;;;;;;;;;;;;;;-7.09;100.00;98091.75;5065535;28;19917;-64
2023/02/09 05:57:59;;;;;;;;;;;;;;;-7.27;100.00;98092.53;5064607;28;19920;-65
2023/02/09 06:00:26;;;;;;;;;;;;;;;-7.02;100.00;98097.00;5040683;28;20003;-66
2023/02/09 06:02:51;;;;;;;;;;;;;;;-7.15;100.00;98096.13;5057513;28;19925;-65
2023/02/09 06:05:18;;;;;;;;;;;;;;;-7.39;100.00;98097.72;5060288;28;19917;-65
2023/02/09 06:07:44;;;;;;;;;;;;;;;-7.41;100.00;98094.47;5064731;28;20296;-64
2023/02/09 06:10:11;;;;;;;;;;;;;;;-7.55;100.00;98091.09;5058420;28;20257;-64
2023/02/09 06:12:36;;;;;;;;;;;;;;;-7.48;100.00;98101.69;5065293;28;20003;-63
2023/02/09 06:15:01;;;;;;;;;;;;;;;-7.27;100.00;98103.19;5063949;28;20369;-65
2023/02/09 06:17:27;;;;;;;;;;;;;;;-7.27;100.00;98105.00;5060166;28;19985;-64
2023/02/09 06:19:52;;;;;;;;;;;;;;;-7.26;100.00;98099.47;5053093;28;19927;-65
2023/02/09 06:22:17;;;;;;;;;;;;;;;-7.14;100.00;98116.38;5038726;28;19967;-64
2023/02/09 06:24:42;;;;;;;;;;;;;;;-6.85;100.00;98111.41;5044103;28;20015;-65
2023/02/09 06:27:08;;;;;;;;;;;;;;;-6.89;100.00;98114.75;5039393;28;19921;-64
2023/02/09 06:29:33;;;;;;;;;;;;;;;-6.76;100.00;98115.41;5044509;28;19917;-65
2023/02/09 06:31:58;;;;;;;;;;;;;;;-6.55;100.00;98113.38;5039948;28;19963;-65
2023/02/09 06:34:24;;;;;;;;;;;;;;;-6.40;100.00;98113.81;5039382;28;19924;-65
2023/02/09 06:36:49;;;;;;;;;;;;;;;-6.55;100.00;98113.38;5044308;28;19929;-65
2023/02/09 06:39:15;;;;;;;;;;;;;;;-6.63;100.00;98108.31;5020314;28;19944;-66
2023/02/09 06:41:40;;;;;;;;;;;;;;;-6.76;100.00;98111.94;5052368;28;19963;-65
2023/02/09 06:44:05;;;;;;;;;;;;;;;-6.60;100.00;98113.22;5044555;28;19921;-65
2023/02/09 06:46:30;;;;;;;;;;;;;;;-6.38;100.00;98117.06;5042861;28;19975;-65
2023/02/09 06:48:56;;;;;;;;;;;;;;;-6.22;100.00;98122.84;5044455;28;19927;-66
2023/02/09 06:51:21;;;;;;;;;;;;;;;-6.28;100.00;98118.38;5004285;28;19937;-66
2023/02/09 06:53:46;;;;;;;;;;;;;;;-6.40;100.00;98118.31;5043583;28;20421;-64
2023/02/09 06:56:12;;;;;;;;;;;;;;;-6.28;100.00;98124.56;5038855;28;20310;-64
2023/02/09 06:58:37;;;;;;;;;;;;;;;-6.25;100.00;98118.75;5044243;28;19928;-64
2023/02/09 07:01:03;;;;;;;;;;;;;;;-6.25;100.00;98123.28;5040116;28;19932;-65
2023/02/09 07:03:29;;;;;;;;;;;;;;;-6.16;100.00;98127.25;5045612;28;20400;-65
2023/02/09 07:05:54;;;;;;;;;;;;;;;-5.97;100.00;98133.41;5062040;28;19920;-65
2023/02/09 07:08:20;;;;;;;;;;;;;;;-5.69;100.00;98126.63;5040020;28;20254;-65
2023/02/09 07:10:45;;;;;;;;;;;;;;;-5.78;100.00;98134.97;5063927;28;20046;-65
2023/02/09 07:13:10;;;;;;;;;;;;;;;-6.01;100.00;98130.38;5057590;28;19917;-64
2023/02/09 07:15:35;;;;;;;;;;;;;;;-6.33;100.00;98127.06;5062324;28;19916;-65
2023/02/09 07:18:01;;;;;;;;;;;;;;;-6.31;100.00;98132.19;5063403;28;20057;-64
2023/02/09 07:20:26;;;;;;;;;;;;;;;-6.46;100.00;98130.69;5042878;28;19921;-64
2023/02/09 07:22:51;;;;;;;;;;;;;;;-6.38;100.00;98134.91;5042823;28;20039;-65
2023/02/09 07:25:16;;;;;;;;;;;;;;;-6.60;100.00;98131.88;5039888;28;19920;-65
2023/02/09 07:27:43;;;;;;;;;;;;;;;-6.48;100.00;98143.44;5043676;28;20324;-66
2023/02/09 07:30:09;;;;;;;;;;;;;;;-6.04;100.00;98138.81;5039880;28;19925;-66
2023/02/09 07:32:35;;;;;;;;;;;;;;;-5.49;100.00;98142.38;5041470;28;19916;-65
2023/02/09 07:35:01;;;;;;;;;;;;;;;-5.25;100.00;98143.25;5042748;28;19917;-65
2023/02/09 07:37:26;;;;;;;;;;;;;;;-5.08;100.00;98144.22;5039334;28;20016;-65
2023/02/09 07:39:51;;;;;;;;;;;;;;;-4.89;100.00;98147.63;5044206;28;20348;-65
2023/02/09 07:42:17;;;;;;;;;;;;;;;-4.66;100.00;98157.50;5038723;28;19916;-66
2023/02/09 07:44:42;;;;;;;;;;;;;;;-4.46;100.00;98156.34;5044392;28;19975;-66
2023/02/09 07:47:07;;;;;;;;;;;;;;;-4.35;100.00;98154.72;5038427;28;19917;-65
2023/02/09 07:49:33;;;;;;;;;;;;;;;-4.32;100.00;98148.88;5042911;28;20038;-65
2023/02/09 07:51:59;;;;;;;;;;;;;;;-4.08;100.00;98155.00;5043440;28;19921;-65
2023/02/09 07:54:24;;;;;;;;;;;;;;;-3.89;100.00;98156.47;5038193;28;20037;-66
2023/02/09 07:56:49;;;;;;;;;;;;;;;-3.83;100.00;98157.38;5023881;28;19921;-67
2023/02/09 07:59:15;;;;;;;;;;;;;;;-3.73;100.00;98159.44;5037780;28;20012;-65
2023/02/09 08:01:40;;;;;;;;;;;;;;;-3.49;100.00;98162.84;5044902;28;19924;-65
2023/02/09 08:04:05;;;;;;;;;;;;;;;-3.33;100.00;98163.94;5057933;28;19924;-67
2023/02/09 08:06:41;;;;;;;;;;;;;;;-3.14;100.00;98156.50;5052979;28;19916;-66
2023/02/09 08:09:07;;;;;;;;;;;;;;;-3.01;100.00;98164.22;5054571;28;19924;-65
2023/02/09 08:11:35;;;;;;;;;;;;;;;-3.48;100.00;98162.59;5055215;28;19917;-64
2023/02/09 08:14:02;;;;;;;;;;;;;;;-3.36;100.00;98159.88;5042676;28;19960;-66
2023/02/09 08:16:29;;;;;;;;;;;;;;;-3.57;100.00;98156.00;5039380;28;19923;-66
2023/02/09 08:18:57;;;;;;;;;;;;;;;-3.58;100.00;98158.91;5032417;28;19921;-64
2023/02/09 08:21:23;;;;;;;;;;;;;;;-3.15;100.00;98169.09;5029526;28;20024;-65
2023/02/09 08:23:51;;;;;;;;;;;;;;;-2.60;100.00;98166.75;5042770;28;19921;-64
2023/02/09 08:26:17;;;;;;;;;;;;;;;-2.35;100.00;98171.69;5036266;28;19921;-66
2023/02/09 08:28:44;;;;;;;;;;;;;;;-2.10;100.00;98160.47;5041510;28;20392;-66
2023/02/09 08:31:13;;;;;;;;;;;;;;;-1.94;100.00;98164.19;5037591;28;19924;-64
2023/02/09 08:33:38;;;;;;;;;;;;;;;-1.89;100.00;98155.34;5042104;28;19928;-66
2023/02/09 08:36:04;;;;;;;;;;;;;;;-1.77;100.00;98164.91;5037263;28;19917;-66
2023/02/09 08:38:29;;;;;;;;;;;;;;;-1.66;100.00;98163.16;5040598;28;19921;-64
2023/02/09 08:40:55;;;;;;;;;;;;;;;-1.46;100.00;98159.91;5022584;28;20019;-64
2023/02/09 08:43:20;;;;;;;;;;;;;;;-1.33;100.00;98158.69;5040085;28;19986;-65
2023/02/09 08:45:45;;;;;;;;;;;;;;;-1.27;100.00;98162.22;5041374;28;19917;-65
2023/02/09 08:48:10;;;;;;;;;;;;;;;-1.14;100.00;98163.69;5037069;28;20282;-63
2023/02/09 08:50:36;;;;;;;;;;;;;;;-0.99;99.98;98164.66;5042722;28;19952;-64
2023/02/09 08:53:02;;;;;;;;;;;;;;;-0.78;99.28;98167.50;5042331;28;19924;-64
2023/02/09 08:55:28;;;;;;;;;;;;;;;-0.57;98.21;98165.00;5036357;28;19997;-64
2023/02/09 08:57:54;;;;;;;;;;;;;;;-0.33;96.21;98163.50;5041399;28;19917;-64
2023/02/09 09:00:19;;;;;;;;;;;;;;;-0.18;95.12;98172.75;5035708;28;19917;-65
2023/02/09 09:02:44;;;;;;;;;;;;;;;-0.21;94.00;98158.75;5040897;28;19917;-64
2023/02/09 09:05:10;;;;;;;;;;;;;;;-0.10;93.07;98170.38;5036789;28;20012;-64
2023/02/09 09:07:36;;;;;;;;;;;;;;;-0.01;93.68;98166.13;5039677;28;19932;-65
2023/02/09 09:10:01;;;;;;;;;;;;;;;0.08;92.69;98174.53;5040634;28;19917;-68
2023/02/09 09:12:28;;;;;;;;;;;;;;;0.16;92.55;98171.34;5020400;28;20274;-64
2023/02/09 09:14:53;;;;;;;;;;;;;;;-0.40;93.10;98165.63;5041221;28;19990;-65
2023/02/09 09:17:19;;;;;;;;;;;;;;;-0.29;93.12;98174.56;5037295;28;20377;-65
2023/02/09 09:19:44;;;;;;;;;;;;;;;-0.04;94.12;98179.31;5036808;28;19921;-66
2023/02/09 09:22:09;;;;;;;;;;;;;;;0.16;92.48;98182.13;5016603;28;20404;-65
2023/02/09 09:24:39;;;;;;;;;;;;;;;0.16;91.52;98187.50;5021453;28;19917;-65
2023/02/09 09:27:05;;;;;;;;;;;;;;;0.21;91.84;98180.50;5018124;28;20382;-66
2023/02/09 09:29:33;;;;;;;;;;;;;;;0.06;91.32;98182.06;5021675;28;19959;-65
2023/02/09 09:31:58;;;;;;;;;;;;;;;0.07;91.61;98180.16;5020522;28;19917;-64
2023/02/09 09:34:23;;;;;;;;;;;;;;;-0.68;96.09;98181.03;5017030;28;20353;-65
2023/02/09 09:36:48;;;;;;;;;;;;;;;-0.30;95.86;98186.44;5020622;28;19917;-66
2023/02/09 09:39:14;;;;;;;;;;;;;;;-0.21;94.36;98193.75;5012820;28;19925;-65
2023/02/09 09:41:39;;;;;;;;;;;;;;;-0.35;93.19;98191.78;5026993;28;20361;-65
2023/02/09 09:44:28;;;;;;;;;;;;;;;-0.50;93.22;98187.09;5024637;28;19964;-66
2023/02/09 09:46:53;;;;;;;;;;;;;;;-1.51;100.00;98192.09;5034494;28;19917;-64
2023/02/09 09:49:30;;;;;;;;;;;;;;;-1.47;100.00;98189.72;5036543;28;20040;-65
2023/02/09 09:52:05;;;;;;;;;;;;;;;-1.10;100.00;98197.88;5041634;28;19917;-65
2023/02/09 09:54:32;;;;;;;;;;;;;;;0.63;97.73;98193.88;5040983;28;19974;-67
2023/02/09 09:56:58;;;;;;;;;;;;;;;1.59;88.84;98194.25;5041107;28;19917;-64
2023/02/09 09:59:29;;;;;;;;;;;;;;;2.06;83.46;98203.91;5037485;28;19921;-63
2023/02/09 10:01:55;;;;;;;;;;;;;;;1.40;84.83;98198.56;5035754;28;19918;-65
2023/02/09 10:04:20;;;;;;;;;;;;;;;-0.41;95.34;98201.72;5036701;28;19939;-64
2023/02/09 10:06:47;;;;;;;;;;;;;;;1.02;91.52;98200.72;5040081;28;20006;-63
2023/02/09 10:09:22;;;;;;;;;;;;;;;0.97;86.12;98195.28;5036101;28;19920;-66
2023/02/09 10:11:52;;;;;;;;;;;;;;;1.36;86.08;98198.31;5040445;28;20251;-65
2023/02/09 10:14:17;;;;;;;;;;;;;;;2.68;79.30;98193.69;5036376;28;19920;-65
2023/02/09 10:16:43;;;;;;;;;;;;;;;2.60;77.64;98201.56;5041843;28;20285;-64
2023/02/09 10:19:19;;;;;;;;;;;;;;;3.18;74.86;98196.34;5023161;28;20243;-64
2023/02/09 10:21:45;;;;;;;;;;;;;;;4.81;68.31;98200.41;5023506;28;20444;-65
2023/02/09 10:24:19;;;;;;;;;;;;;;;4.83;62.99;98211.78;5019389;28;19921;-65
2023/02/09 10:27:00;;;;;;;;;;;;;;;6.21;61.27;98205.25;5037984;28;19979;-64
2023/02/09 10:29:25;;;;;;;;;;;;;;;6.75;56.40;98200.91;5040012;28;19956;-65
2023/02/09 10:31:56;;;;;;;;;;;;;;;6.31;54.12;98196.91;5043370;28;19975;-64
2023/02/09 10:34:27;;;;;;;;;;;;;;;6.06;55.92;98196.25;5039447;28;21341;-65
2023/02/09 10:37:11;;;;;;;;;;;;;;;4.85;60.82;98196.00;5044464;28;19916;-66
2023/02/09 10:39:37;;;;;;;;;;;;;;;5.78;57.33;98194.56;5044331;28;19978;-65
2023/02/09 10:42:20;;;;;;;;;;;;;;;4.45;61.26;98192.72;5042440;28;20715;-67
2023/02/09 10:44:50;;;;;;;;;;;;;;;5.86;60.05;98191.97;5045956;28;19940;-66
2023/02/09 10:47:18;;;;;;;;;;;;;;;4.52;59.89;98190.47;5039168;28;20447;-65
2023/02/09 10:49:51;;;;;;;;;;;;;;;5.72;60.48;98189.22;5046027;28;19920;-64
2023/02/09 10:52:20;;;;;;;;;;;;;;;5.93;57.72;98192.38;5040624;28;19944;-64
2023/02/09 10:54:47;;;;;;;;;;;;;;;6.83;56.28;98178.41;5045151;28;19923;-64
2023/02/09 10:57:20;;;;;;;;;;;;;;;5.33;58.25;98181.44;5054497;28;20020;-65
2023/02/09 10:59:49;;;;;;;;;;;;;;;4.35;61.65;98180.06;5045084;28;19943;-64
2023/02/09 11:02:31;;;;;;;;;;;;;;;5.44;61.87;98168.50;5038103;28;19921;-64
2023/02/09 11:04:57;;;;;;;;;;;;;;;5.32;59.25;98168.97;5045101;28;19970;-65
2023/02/09 11:07:24;;;;;;;;;;;;;;;4.73;64.07;98165.75;5032452;28;20426;-66
2023/02/09 11:09:50;;;;;;;;;;;;;;;5.95;59.77;98167.63;5044744;28;19927;-64
2023/02/09 11:12:15;;;;;;;;;;;;;;;3.92;66.19;98155.59;5040061;28;20051;-64
2023/02/09 11:14:41;;;;;;;;;;;;;;;4.24;65.61;98156.06;5047956;28;19918;-64
2023/02/09 11:17:24;;;;;;;;;;;;;;;5.46;61.29;98158.16;5038572;28;19963;-64
2023/02/09 11:20:08;;;;;;;;;;;;;;;6.23;59.09;98156.78;5044232;28;19990;-65
2023/02/09 11:22:46;;;;;;;;;;;;;;;5.28;60.56;98157.88;5046923;28;19916;-66
2023/02/09 11:25:26;;;;;;;;;;;;;;;4.97;62.33;98152.94;5040289;28;19920;-65
2023/02/09 11:27:54;;;;;;;;;;;;;;;5.96;59.37;98135.81;5043056;28;19975;-66
2023/02/09 11:30:27;;;;;;;;;;;;;;;6.26;58.35;98146.09;5039953;28;19976;-65
2023/02/09 11:32:52;;;;;;;;;;;;;;;6.12;57.17;98139.84;5028530;28;19923;-66
2023/02/09 11:35:18;;;;;;;;;;;;;;;6.85;55.85;98132.59;5018939;28;20393;-65
2023/02/09 11:37:50;;;;;;;;;;;;;;;6.74;54.58;98128.50;5023502;28;19917;-65
2023/02/09 11:40:23;;;;;;;;;;;;;;;6.99;55.05;98126.31;5019230;28;19921;-63
2023/02/09 11:42:55;;;;;;;;;;;;;;;7.15;54.47;98126.75;5024076;28;19924;-64
2023/02/09 11:45:32;;;;;;;;;;;;;;;7.01;53.45;98127.63;5026104;28;19917;-66
2023/02/09 11:48:00;;;;;;;;;;;;;;;7.01;54.59;98134.97;5034153;28;19978;-64
2023/02/09 11:50:32;;;;;;;;;;;;;;;6.63;54.43;98125.19;5018574;28;19917;-63
2023/02/09 11:52:59;;;;;;;;;;;;;;;7.88;53.11;98127.34;5023881;28;19979;-65
2023/02/09 11:55:51;;;;;;;;;;;;;;;7.58;52.10;98126.22;5018519;28;20463;-64
2023/02/09 11:58:28;;;;;;;;;;;;;;;8.79;50.08;98125.88;5016659;28;20002;-65
2023/02/09 12:01:12;;;;;;;;;;;;;;;8.47;51.34;98129.06;5027607;28;19917;-67
2023/02/09 12:03:39;;;;;;;;;;;;;;;7.38;53.71;98122.09;5042751;28;20038;-66
2023/02/09 12:06:05;;;;;;;;;;;;;;;6.93;54.23;98116.63;5038589;28;19917;-65
2023/02/09 12:08:42;;;;;;;;;;;;;;;5.80;55.74;98121.66;5050921;28;19923;-67
2023/02/09 12:11:22;;;;;;;;;;;;;;;6.21;57.03;98120.91;5059134;28;19920;-66
2023/02/09 12:13:56;;;;;;;;;;;;;;;6.97;56.31;98114.91;5062286;28;19917;-65
2023/02/09 12:16:33;;;;;;;;;;;;;;;7.15;54.56;98110.38;5059536;28;20868;-65
2023/02/09 12:18:59;;;;;;;;;;;;;;;8.03;53.56;98104.31;5054863;28;19932;-65
2023/02/09 12:21:31;;;;;;;;;;;;;;;8.24;51.44;98104.53;5039349;28;19920;-67
2023/02/09 12:23:56;;;;;;;;;;;;;;;7.92;50.09;98101.03;5043368;28;19932;-64
2023/02/09 12:26:34;;;;;;;;;;;;;;;8.30;50.44;98100.56;5039305;28;20120;-66
2023/02/09 12:29:18;;;;;;;;;;;;;;;8.32;49.69;98094.75;5043494;28;19944;-67
2023/02/09 12:32:09;;;;;;;;;;;;;;;6.83;53.20;98087.72;5059069;28;19921;-66
2023/02/09 12:34:40;;;;;;;;;;;;;;;7.61;51.87;98087.44;5043486;28;20008;-66
2023/02/09 12:37:11;;;;;;;;;;;;;;;6.66;54.71;98083.75;5037699;28;19979;-64
2023/02/09 12:39:37;;;;;;;;;;;;;;;7.26;53.60;98076.34;5042980;28;19932;-66
2023/02/09 12:42:03;;;;;;;;;;;;;;;7.61;52.12;98076.53;5040137;28;20386;-66
2023/02/09 12:44:28;;;;;;;;;;;;;;;7.37;52.75;98080.41;5022094;28;19971;-66
2023/02/09 12:46:56;;;;;;;;;;;;;;;7.80;51.32;98065.41;5042803;28;19921;-66
2023/02/09 12:49:28;;;;;;;;;;;;;;;7.92;52.22;98057.41;5040056;28;20397;-66
2023/02/09 12:52:08;;;;;;;;;;;;;;;7.63;49.56;98064.22;5044639;28;19921;-66
2023/02/09 12:54:45;;;;;;;;;;;;;;;8.26;49.33;98058.63;5045196;28;19924;-66